createdAt,value
2017-12-02T00:00:45.155Z,1016.63
2017-12-02T00:01:45.132Z,1016.66
2017-12-02T00:02:45.108Z,1016.65
2017-12-02T00:03:45.094Z,1016.68
2017-12-02T00:04:45.067Z,1016.74
2017-12-02T00:05:45.034Z,1016.75
2017-12-02T00:06:45.013Z,1016.81
2017-12-02T00:07:45.001Z,1016.80
2017-12-02T00:08:44.959Z,1016.82
2017-12-02T00:09:44.948Z,1016.83
2017-12-02T00:10:44.930Z,1016.90
2017-12-02T00:11:44.890Z,1016.90
2017-12-02T00:12:44.873Z,1016.87
2017-12-02T00:13:44.842Z,1016.90
2017-12-02T00:14:44.826Z,1016.91
2017-12-02T00:15:44.794Z,1016.93
2017-12-02T00:16:44.776Z,1016.90
2017-12-02T00:17:44.750Z,1016.88
2017-12-02T00:18:44.724Z,1016.86
2017-12-02T00:19:44.703Z,1016.86
2017-12-02T00:20:44.682Z,1016.87
2017-12-02T00:21:44.657Z,1016.89
2017-12-02T00:22:44.626Z,1016.89
2017-12-02T00:23:44.616Z,1016.85
2017-12-02T00:24:44.582Z,1016.85
2017-12-02T00:25:44.559Z,1016.85
2017-12-02T00:26:44.536Z,1016.85
2017-12-02T00:27:44.523Z,1016.85
2017-12-02T00:28:44.486Z,1016.89
2017-12-02T00:29:44.457Z,1016.92
2017-12-02T00:30:44.441Z,1016.93
2017-12-02T00:31:44.412Z,1016.89
2017-12-02T00:32:44.397Z,1016.91
2017-12-02T00:33:44.369Z,1016.94
2017-12-02T00:34:44.344Z,1016.93
2017-12-02T00:35:44.322Z,1016.97
2017-12-02T00:36:44.299Z,1016.95
2017-12-02T00:37:44.273Z,1017.02
2017-12-02T00:38:44.250Z,1017.04
2017-12-02T00:39:44.232Z,1017.03
2017-12-02T00:40:44.206Z,1017.04
2017-12-02T00:41:44.232Z,1017.08
2017-12-02T00:42:44.157Z,1017.07
2017-12-02T00:43:44.130Z,1017.10
2017-12-02T00:44:44.118Z,1017.12
2017-12-02T00:45:44.082Z,1017.09
2017-12-02T00:46:44.059Z,1017.13
2017-12-02T00:47:44.033Z,1017.22
2017-12-02T00:48:44.013Z,1017.21
2017-12-02T00:49:43.986Z,1017.22
2017-12-02T00:50:43.968Z,1017.22
2017-12-02T00:51:43.939Z,1017.24
2017-12-02T00:52:43.915Z,1017.24
2017-12-02T00:53:43.905Z,1017.30
2017-12-02T00:54:43.868Z,1017.31
2017-12-02T00:55:43.846Z,1017.30
2017-12-02T00:56:43.828Z,1017.35
2017-12-02T00:57:43.796Z,1017.36
2017-12-02T00:58:43.776Z,1017.31
2017-12-02T00:59:43.754Z,1017.29
2017-12-02T01:00:43.727Z,1017.30
2017-12-02T01:01:43.706Z,1017.29
2017-12-02T01:02:43.686Z,1017.28
2017-12-02T01:03:43.657Z,1017.26
2017-12-02T01:04:43.640Z,1017.27
2017-12-02T01:05:43.613Z,1017.29
2017-12-02T01:06:43.587Z,1017.31
2017-12-02T01:07:43.564Z,1017.30
2017-12-02T01:08:43.536Z,1017.32
2017-12-02T01:09:43.517Z,1017.37
2017-12-02T01:10:43.500Z,1017.38
2017-12-02T01:11:43.465Z,1017.37
2017-12-02T01:12:43.445Z,1017.38
2017-12-02T01:13:43.420Z,1017.41
2017-12-02T01:14:43.395Z,1017.39
2017-12-02T01:15:43.372Z,1017.42
2017-12-02T01:16:43.353Z,1017.42
2017-12-02T01:17:43.326Z,1017.46
2017-12-02T01:18:43.303Z,1017.46
2017-12-02T01:19:43.278Z,1017.52
2017-12-02T01:20:43.255Z,1017.51
2017-12-02T01:21:43.247Z,1017.51
2017-12-02T01:22:43.206Z,1017.54
2017-12-02T01:23:43.184Z,1017.57
2017-12-02T01:24:43.160Z,1017.53
2017-12-02T01:25:43.139Z,1017.53
2017-12-02T01:26:43.111Z,1017.52
2017-12-02T01:27:43.096Z,1017.52
2017-12-02T01:28:43.070Z,1017.53
2017-12-02T01:29:43.048Z,1017.54
2017-12-02T01:30:43.024Z,1017.54
2017-12-02T01:31:43.002Z,1017.56
2017-12-02T01:32:42.970Z,1017.55
2017-12-02T01:33:42.950Z,1017.51
2017-12-02T01:34:42.927Z,1017.55
2017-12-02T01:35:42.902Z,1017.58
2017-12-02T01:36:42.885Z,1017.62
2017-12-02T01:37:42.861Z,1017.69
2017-12-02T01:38:42.834Z,1017.69
2017-12-02T01:39:42.806Z,1017.71
2017-12-02T01:40:42.790Z,1017.71
2017-12-02T01:41:42.762Z,1017.77
2017-12-02T01:42:42.737Z,1017.73
2017-12-02T01:43:42.718Z,1017.76
2017-12-02T01:44:42.692Z,1017.79
2017-12-02T01:45:42.667Z,1017.77
2017-12-02T01:46:42.649Z,1017.81
2017-12-02T01:47:42.619Z,1017.82
2017-12-02T01:48:42.598Z,1017.86
2017-12-02T01:49:42.575Z,1017.87
2017-12-02T01:50:42.548Z,1017.93
2017-12-02T01:51:42.531Z,1017.89
2017-12-02T01:52:42.500Z,1017.94
2017-12-02T01:53:42.482Z,1017.90
2017-12-02T01:54:42.508Z,1017.89
2017-12-02T01:55:42.432Z,1017.96
2017-12-02T01:56:42.406Z,1017.96
2017-12-02T01:57:42.388Z,1017.92
2017-12-02T01:58:42.363Z,1017.97
2017-12-02T01:59:42.343Z,1017.98
2017-12-02T02:00:42.312Z,1017.93
2017-12-02T02:01:42.292Z,1018.00
2017-12-02T02:02:42.270Z,1017.99
2017-12-02T02:03:42.242Z,1018.00
2017-12-02T02:04:42.220Z,1018.04
2017-12-02T02:05:42.201Z,1018.01
2017-12-02T02:06:42.172Z,1018.05
2017-12-02T02:07:42.150Z,1018.04
2017-12-02T02:08:42.127Z,1018.04
2017-12-02T02:09:42.103Z,1018.06
2017-12-02T02:10:42.079Z,1018.07
2017-12-02T02:11:42.057Z,1018.06
2017-12-02T02:12:42.046Z,1018.06
2017-12-02T02:13:42.009Z,1018.11
2017-12-02T02:14:41.985Z,1018.08
2017-12-02T02:15:41.970Z,1018.11
2017-12-02T02:16:41.946Z,1018.10
2017-12-02T02:17:41.915Z,1018.09
2017-12-02T02:18:41.894Z,1018.09
2017-12-02T02:19:41.874Z,1018.07
2017-12-02T02:20:41.844Z,1018.08
2017-12-02T02:21:41.827Z,1018.10
2017-12-02T02:22:41.803Z,1018.08
2017-12-02T02:23:41.786Z,1018.07
2017-12-02T02:24:41.755Z,1018.09
2017-12-02T02:25:41.731Z,1018.08
2017-12-02T02:26:41.709Z,1018.12
2017-12-02T02:27:41.683Z,1018.14
2017-12-02T02:28:41.667Z,1018.13
2017-12-02T02:29:41.636Z,1018.12
2017-12-02T02:30:41.613Z,1018.18
2017-12-02T02:31:41.588Z,1018.15
2017-12-02T02:32:41.569Z,1018.16
2017-12-02T02:33:41.550Z,1018.14
2017-12-02T02:34:41.519Z,1018.14
2017-12-02T02:35:41.501Z,1018.14
2017-12-02T02:36:41.471Z,1018.13
2017-12-02T02:37:41.453Z,1018.18
2017-12-02T02:38:41.424Z,1018.17
2017-12-02T02:39:41.402Z,1018.15
2017-12-02T02:40:41.380Z,1018.17
2017-12-02T02:41:41.354Z,1018.18
2017-12-02T02:42:41.341Z,1018.17
2017-12-02T02:43:41.310Z,1018.14
2017-12-02T02:44:41.285Z,1018.12
2017-12-02T02:45:41.264Z,1018.10
2017-12-02T02:46:41.241Z,1018.10
2017-12-02T02:47:41.223Z,1018.09
2017-12-02T02:48:41.195Z,1018.10
2017-12-02T02:49:41.169Z,1018.13
2017-12-02T02:50:41.145Z,1018.14
2017-12-02T02:51:41.121Z,1018.14
2017-12-02T02:52:41.117Z,1018.20
2017-12-02T02:53:41.075Z,1018.23
2017-12-02T02:54:41.053Z,1018.26
2017-12-02T02:55:41.028Z,1018.27
2017-12-02T02:56:41.008Z,1018.31
2017-12-02T02:57:40.988Z,1018.29
2017-12-02T02:58:40.962Z,1018.30
2017-12-02T02:59:40.938Z,1018.29
2017-12-02T03:00:40.914Z,1018.35
2017-12-02T03:01:40.892Z,1018.33
2017-12-02T03:02:40.866Z,1018.35
2017-12-02T03:03:40.843Z,1018.37
2017-12-02T03:04:40.819Z,1018.37
2017-12-02T03:05:40.797Z,1018.39
2017-12-02T03:06:40.783Z,1018.42
2017-12-02T03:07:40.754Z,1018.41
2017-12-02T03:08:40.727Z,1018.40
2017-12-02T03:09:40.705Z,1018.40
2017-12-02T03:10:40.685Z,1018.42
2017-12-02T03:11:40.669Z,1018.37
2017-12-02T03:12:40.635Z,1018.36
2017-12-02T03:13:40.617Z,1018.31
2017-12-02T03:14:40.593Z,1018.34
2017-12-02T03:15:40.568Z,1018.33
2017-12-02T03:16:40.544Z,1018.35
2017-12-02T03:17:40.517Z,1018.35
2017-12-02T03:18:40.494Z,1018.38
2017-12-02T03:19:40.472Z,1018.42
2017-12-02T03:20:40.449Z,1018.43
2017-12-02T03:21:40.423Z,1018.49
2017-12-02T03:22:40.402Z,1018.52
2017-12-02T03:23:40.381Z,1018.51
2017-12-02T03:24:40.354Z,1018.48
2017-12-02T03:25:40.331Z,1018.49
2017-12-02T03:26:40.309Z,1018.50
2017-12-02T03:27:40.285Z,1018.51
2017-12-02T03:28:40.266Z,1018.54
2017-12-02T03:29:40.239Z,1018.53
2017-12-02T03:30:40.218Z,1018.57
2017-12-02T03:31:40.193Z,1018.52
2017-12-02T03:32:40.169Z,1018.52
2017-12-02T03:33:40.145Z,1018.51
2017-12-02T03:34:40.121Z,1018.51
2017-12-02T03:35:40.105Z,1018.53
2017-12-02T03:36:40.075Z,1018.51
2017-12-02T03:37:40.054Z,1018.51
2017-12-02T03:38:40.039Z,1018.51
2017-12-02T03:39:40.006Z,1018.53
2017-12-02T03:40:39.981Z,1018.54
2017-12-02T03:41:39.959Z,1018.52
2017-12-02T03:42:39.944Z,1018.60
2017-12-02T03:43:39.912Z,1018.54
2017-12-02T03:44:39.891Z,1018.64
2017-12-02T03:45:39.865Z,1018.62
2017-12-02T03:46:39.845Z,1018.61
2017-12-02T03:47:39.819Z,1018.61
2017-12-02T03:48:39.797Z,1018.62
2017-12-02T03:49:39.771Z,1018.61
2017-12-02T03:50:39.749Z,1018.59
2017-12-02T03:51:39.729Z,1018.59
2017-12-02T03:52:39.705Z,1018.58
2017-12-02T03:53:39.683Z,1018.56
2017-12-02T03:54:39.662Z,1018.58
2017-12-02T03:55:39.638Z,1018.59
2017-12-02T03:56:39.613Z,1018.60
2017-12-02T03:57:39.588Z,1018.60
2017-12-02T03:58:39.566Z,1018.63
2017-12-02T03:59:39.538Z,1018.61
2017-12-02T04:00:39.517Z,1018.61
2017-12-02T04:01:39.503Z,1018.63
2017-12-02T04:02:39.470Z,1018.64
2017-12-02T04:03:39.454Z,1018.72
2017-12-02T04:04:39.423Z,1018.75
2017-12-02T04:05:39.401Z,1018.77
2017-12-02T04:06:39.380Z,1018.75
2017-12-02T04:07:39.354Z,1018.80
2017-12-02T04:08:39.332Z,1018.77
2017-12-02T04:09:39.309Z,1018.80
2017-12-02T04:10:39.284Z,1018.81
2017-12-02T04:11:39.264Z,1018.80
2017-12-02T04:12:39.240Z,1018.79
2017-12-02T04:13:39.214Z,1018.79
2017-12-02T04:14:39.193Z,1018.79
2017-12-02T04:15:39.169Z,1018.74
2017-12-02T04:16:39.145Z,1018.77
2017-12-02T04:17:39.122Z,1018.79
2017-12-02T04:18:39.098Z,1018.81
2017-12-02T04:19:39.075Z,1018.79
2017-12-02T04:20:39.051Z,1018.78
2017-12-02T04:21:39.029Z,1018.76
2017-12-02T04:22:39.002Z,1018.75
2017-12-02T04:23:38.978Z,1018.78
2017-12-02T04:24:38.954Z,1018.83
2017-12-02T04:25:38.934Z,1018.82
2017-12-02T04:26:38.915Z,1018.85
2017-12-02T04:27:38.885Z,1018.85
2017-12-02T04:28:38.864Z,1018.84
2017-12-02T04:29:38.840Z,1018.82
2017-12-02T04:30:38.821Z,1018.81
2017-12-02T04:31:38.793Z,1018.83
2017-12-02T04:32:38.773Z,1018.82
2017-12-02T04:33:38.748Z,1018.84
2017-12-02T04:34:38.723Z,1018.84
2017-12-02T04:35:38.700Z,1018.82
2017-12-02T04:36:38.677Z,1018.81
2017-12-02T04:37:38.662Z,1018.83
2017-12-02T04:38:38.636Z,1018.83
2017-12-02T04:39:38.606Z,1018.84
2017-12-02T04:40:38.585Z,1018.81
2017-12-02T04:41:38.564Z,1018.81
2017-12-02T04:42:38.535Z,1018.81
2017-12-02T04:43:38.511Z,1018.76
2017-12-02T04:44:38.493Z,1018.78
2017-12-02T04:45:38.470Z,1018.79
2017-12-02T04:46:38.444Z,1018.80
2017-12-02T04:47:38.423Z,1018.82
2017-12-02T04:48:38.407Z,1018.82
2017-12-02T04:49:38.374Z,1018.82
2017-12-02T04:50:38.356Z,1018.83
2017-12-02T04:51:38.329Z,1018.80
2017-12-02T04:52:38.306Z,1018.77
2017-12-02T04:53:38.281Z,1018.76
2017-12-02T04:54:38.255Z,1018.79
2017-12-02T04:55:38.233Z,1018.82
2017-12-02T04:56:38.209Z,1018.81
2017-12-02T04:57:38.185Z,1018.81
2017-12-02T04:58:38.164Z,1018.79
2017-12-02T04:59:38.138Z,1018.79
2017-12-02T05:00:38.115Z,1018.80
2017-12-02T05:01:38.094Z,1018.80
2017-12-02T05:02:38.074Z,1018.79
2017-12-02T05:03:38.045Z,1018.80
2017-12-02T05:04:38.021Z,1018.79
2017-12-02T05:05:38.001Z,1018.78
2017-12-02T05:06:37.979Z,1018.77
2017-12-02T05:07:37.955Z,1018.78
2017-12-02T05:08:37.932Z,1018.75
2017-12-02T05:09:37.907Z,1018.77
2017-12-02T05:10:37.885Z,1018.75
2017-12-02T05:11:37.860Z,1018.77
2017-12-02T05:12:37.839Z,1018.73
2017-12-02T05:13:37.811Z,1018.75
2017-12-02T05:14:37.789Z,1018.77
2017-12-02T05:15:37.771Z,1018.76
2017-12-02T05:16:37.742Z,1018.76
2017-12-02T05:17:37.725Z,1018.74
2017-12-02T05:18:37.699Z,1018.77
2017-12-02T05:19:37.675Z,1018.77
2017-12-02T05:20:37.654Z,1018.79
2017-12-02T05:21:37.630Z,1018.79
2017-12-02T05:22:37.604Z,1018.79
2017-12-02T05:23:37.584Z,1018.83
2017-12-02T05:24:37.556Z,1018.83
2017-12-02T05:25:37.533Z,1018.81
2017-12-02T05:26:37.515Z,1018.83
2017-12-02T05:27:37.482Z,1018.86
2017-12-02T05:28:37.463Z,1018.85
2017-12-02T05:29:37.437Z,1018.88
2017-12-02T05:30:37.422Z,1018.87
2017-12-02T05:31:37.391Z,1018.86
2017-12-02T05:32:37.367Z,1018.86
2017-12-02T05:33:37.348Z,1018.86
2017-12-02T05:34:37.324Z,1018.90
2017-12-02T05:35:37.298Z,1018.88
2017-12-02T05:36:37.273Z,1018.91
2017-12-02T05:37:37.255Z,1018.91
2017-12-02T05:38:37.237Z,1018.92
2017-12-02T05:39:37.205Z,1018.96
2017-12-02T05:40:37.184Z,1018.96
2017-12-02T05:41:37.157Z,1019.02
2017-12-02T05:42:37.135Z,1019.05
2017-12-02T05:43:37.114Z,1019.06
2017-12-02T05:44:37.088Z,1019.06
2017-12-02T05:45:37.064Z,1019.06
2017-12-02T05:46:37.052Z,1019.06
2017-12-02T05:47:37.018Z,1019.05
2017-12-02T05:48:36.994Z,1019.10
2017-12-02T05:49:36.972Z,1019.08
2017-12-02T05:50:36.948Z,1019.11
2017-12-02T05:51:36.924Z,1019.14
2017-12-02T05:52:36.900Z,1019.15
2017-12-02T05:53:37.132Z,1019.16
2017-12-02T05:54:36.853Z,1019.17
2017-12-02T05:55:36.833Z,1019.19
2017-12-02T05:56:36.804Z,1019.21
2017-12-02T05:57:36.782Z,1019.20
2017-12-02T05:58:36.766Z,1019.21
2017-12-02T05:59:36.737Z,1019.19
2017-12-02T06:00:36.714Z,1019.23
2017-12-02T06:01:36.695Z,1019.20
2017-12-02T06:02:36.664Z,1019.20
2017-12-02T06:03:36.644Z,1019.18
2017-12-02T06:04:36.629Z,1019.24
2017-12-02T06:05:36.601Z,1019.25
2017-12-02T06:06:36.574Z,1019.31
2017-12-02T06:07:36.551Z,1019.34
2017-12-02T06:08:36.526Z,1019.38
2017-12-02T06:09:36.503Z,1019.42
2017-12-02T06:10:36.479Z,1019.44
2017-12-02T06:11:36.454Z,1019.45
2017-12-02T06:12:36.432Z,1019.46
2017-12-02T06:13:36.412Z,1019.47
2017-12-02T06:14:36.385Z,1019.46
2017-12-02T06:15:36.361Z,1019.52
2017-12-02T06:16:36.333Z,1019.55
2017-12-02T06:17:36.313Z,1019.53
2017-12-02T06:18:36.288Z,1019.56
2017-12-02T06:19:36.265Z,1019.58
2017-12-02T06:20:36.245Z,1019.63
2017-12-02T06:21:36.218Z,1019.63
2017-12-02T06:22:36.195Z,1019.62
2017-12-02T06:23:36.171Z,1019.61
2017-12-02T06:24:36.146Z,1019.59
2017-12-02T06:25:36.128Z,1019.61
2017-12-02T06:26:36.103Z,1019.62
2017-12-02T06:27:36.085Z,1019.63
2017-12-02T06:28:36.051Z,1019.67
2017-12-02T06:29:36.034Z,1019.66
2017-12-02T06:30:36.008Z,1019.67
2017-12-02T06:31:35.984Z,1019.67
2017-12-02T06:32:35.963Z,1019.71
2017-12-02T06:33:35.937Z,1019.72
2017-12-02T06:34:35.916Z,1019.75
2017-12-02T06:35:35.893Z,1019.72
2017-12-02T06:36:35.865Z,1019.76
2017-12-02T06:37:35.845Z,1019.79
2017-12-02T06:38:35.822Z,1019.79
2017-12-02T06:39:35.795Z,1019.80
2017-12-02T06:40:35.773Z,1019.80
2017-12-02T06:41:35.750Z,1019.81
2017-12-02T06:42:35.725Z,1019.84
2017-12-02T06:43:35.711Z,1019.81
2017-12-02T06:44:35.684Z,1019.82
2017-12-02T06:45:35.654Z,1019.84
2017-12-02T06:46:35.629Z,1019.84
2017-12-02T06:47:35.604Z,1019.91
2017-12-02T06:48:35.579Z,1019.90
2017-12-02T06:49:35.557Z,1019.90
2017-12-02T06:50:35.535Z,1019.90
2017-12-02T06:51:35.512Z,1019.92
2017-12-02T06:52:35.489Z,1019.91
2017-12-02T06:53:35.464Z,1019.91
2017-12-02T06:54:35.442Z,1019.90
2017-12-02T06:55:35.414Z,1019.91
2017-12-02T06:56:35.402Z,1019.91
2017-12-02T06:57:35.373Z,1019.90
2017-12-02T06:58:35.352Z,1019.93
2017-12-02T06:59:35.320Z,1019.92
2017-12-02T07:00:35.298Z,1019.92
2017-12-02T07:01:35.280Z,1019.96
2017-12-02T07:02:35.255Z,1019.97
2017-12-02T07:03:35.226Z,1020.00
2017-12-02T07:04:35.209Z,1020.00
2017-12-02T07:05:35.189Z,1019.97
2017-12-02T07:06:35.162Z,1019.95
2017-12-02T07:07:35.144Z,1019.98
2017-12-02T07:08:35.115Z,1019.97
2017-12-02T07:09:35.088Z,1019.95
2017-12-02T07:10:35.067Z,1019.95
2017-12-02T07:11:35.043Z,1019.92
2017-12-02T07:12:35.019Z,1019.95
2017-12-02T07:13:34.999Z,1019.94
2017-12-02T07:14:34.971Z,1019.93
2017-12-02T07:15:34.945Z,1019.95
2017-12-02T07:16:34.926Z,1019.88
2017-12-02T07:17:34.908Z,1019.88
2017-12-02T07:18:34.875Z,1019.86
2017-12-02T07:19:34.857Z,1019.85
2017-12-02T07:20:34.828Z,1019.87
2017-12-02T07:21:34.807Z,1019.87
2017-12-02T07:22:34.783Z,1019.91
2017-12-02T07:23:34.756Z,1019.93
2017-12-02T07:24:34.734Z,1019.95
2017-12-02T07:25:34.712Z,1019.96
2017-12-02T07:26:34.689Z,1019.99
2017-12-02T07:27:34.662Z,1019.97
2017-12-02T07:28:34.644Z,1020.00
2017-12-02T07:29:34.616Z,1020.04
2017-12-02T07:30:34.595Z,1020.03
2017-12-02T07:31:34.579Z,1020.03
2017-12-02T07:32:34.544Z,1020.04
2017-12-02T07:33:34.525Z,1020.04
2017-12-02T07:34:34.504Z,1019.99
2017-12-02T07:35:34.475Z,1020.01
2017-12-02T07:36:34.453Z,1020.00
2017-12-02T07:37:34.438Z,1020.04
2017-12-02T07:38:34.406Z,1020.01
2017-12-02T07:39:34.384Z,1020.04
2017-12-02T07:40:34.362Z,1020.03
2017-12-02T07:41:34.336Z,1020.02
2017-12-02T07:42:34.321Z,1020.00
2017-12-02T07:43:34.289Z,1020.01
2017-12-02T07:44:34.263Z,1020.01
2017-12-02T07:45:34.245Z,1019.97
2017-12-02T07:46:34.219Z,1019.94
2017-12-02T07:47:34.195Z,1019.90
2017-12-02T07:48:34.176Z,1019.93
2017-12-02T07:49:34.146Z,1019.93
2017-12-02T07:50:34.124Z,1019.95
2017-12-02T07:51:34.101Z,1019.94
2017-12-02T07:52:34.076Z,1019.95
2017-12-02T07:53:34.053Z,1019.97
2017-12-02T07:54:34.031Z,1019.95
2017-12-02T07:55:34.006Z,1019.94
2017-12-02T07:56:33.982Z,1019.95
2017-12-02T07:57:33.970Z,1019.96
2017-12-02T07:58:33.945Z,1019.95
2017-12-02T07:59:33.905Z,1019.96
2017-12-02T08:00:33.886Z,1019.99
2017-12-02T08:01:33.898Z,1020.00
2017-12-02T08:02:33.849Z,1020.02
2017-12-02T08:03:33.822Z,1020.06
2017-12-02T08:04:33.791Z,1020.04
2017-12-02T08:05:33.765Z,1020.00
2017-12-02T08:06:33.759Z,1020.01
2017-12-02T08:07:33.718Z,1019.99
2017-12-02T08:08:33.701Z,1019.99
2017-12-02T08:09:33.682Z,1019.98
2017-12-02T08:10:33.656Z,1020.00
2017-12-02T08:11:33.625Z,1020.01
2017-12-02T08:12:33.607Z,1020.07
2017-12-02T08:13:33.580Z,1020.09
2017-12-02T08:14:33.556Z,1020.07
2017-12-02T08:15:33.535Z,1020.09
2017-12-02T08:16:33.508Z,1020.11
2017-12-02T08:17:33.488Z,1020.11
2017-12-02T08:18:33.482Z,1020.09
2017-12-02T08:19:33.437Z,1020.08
2017-12-02T08:20:33.422Z,1020.06
2017-12-02T08:21:33.392Z,1020.05
2017-12-02T08:22:33.376Z,1020.06
2017-12-02T08:23:33.347Z,1019.99
2017-12-02T08:24:33.321Z,1020.03
2017-12-02T08:25:33.298Z,1020.03
2017-12-02T08:26:33.282Z,1020.04
2017-12-02T08:27:33.246Z,1020.05
2017-12-02T08:28:33.226Z,1020.06
2017-12-02T08:29:33.202Z,1020.05
2017-12-02T08:30:33.178Z,1020.09
2017-12-02T08:31:33.154Z,1020.12
2017-12-02T08:32:33.129Z,1020.15
2017-12-02T08:33:33.109Z,1020.17
2017-12-02T08:34:33.084Z,1020.20
2017-12-02T08:35:33.059Z,1020.23
2017-12-02T08:36:33.036Z,1020.30
2017-12-02T08:37:33.014Z,1020.28
2017-12-02T08:38:32.987Z,1020.29
2017-12-02T08:39:32.966Z,1020.29
2017-12-02T08:40:32.948Z,1020.34
2017-12-02T08:41:32.916Z,1020.33
2017-12-02T08:42:32.894Z,1020.33
2017-12-02T08:43:32.868Z,1020.38
2017-12-02T08:44:32.849Z,1020.41
2017-12-02T08:45:32.827Z,1020.37
2017-12-02T08:46:32.796Z,1020.42
2017-12-02T08:47:32.782Z,1020.44
2017-12-02T08:48:32.749Z,1020.45
2017-12-02T08:49:32.728Z,1020.45
2017-12-02T08:50:32.710Z,1020.49
2017-12-02T08:51:32.678Z,1020.44
2017-12-02T08:52:32.655Z,1020.47
2017-12-02T08:53:32.636Z,1020.48
2017-12-02T08:54:32.610Z,1020.48
2017-12-02T08:55:32.583Z,1020.52
2017-12-02T08:56:32.560Z,1020.51
2017-12-02T08:57:32.536Z,1020.57
2017-12-02T08:58:32.513Z,1020.61
2017-12-02T08:59:32.489Z,1020.61
2017-12-02T09:00:32.471Z,1020.62
2017-12-02T09:01:32.457Z,1020.61
2017-12-02T09:02:32.426Z,1020.65
2017-12-02T09:03:32.396Z,1020.65
2017-12-02T09:04:32.435Z,1020.64
2017-12-02T09:05:32.349Z,1020.61
2017-12-02T09:06:32.326Z,1020.62
2017-12-02T09:07:32.301Z,1020.59
2017-12-02T09:08:32.275Z,1020.62
2017-12-02T09:09:32.256Z,1020.64
2017-12-02T09:10:32.237Z,1020.67
2017-12-02T09:11:32.206Z,1020.68
2017-12-02T09:12:32.185Z,1020.71
2017-12-02T09:13:32.165Z,1020.70
2017-12-02T09:14:32.135Z,1020.70
2017-12-02T09:15:32.118Z,1020.67
2017-12-02T09:16:32.087Z,1020.71
2017-12-02T09:17:32.061Z,1020.67
2017-12-02T09:18:32.043Z,1020.71
2017-12-02T09:19:32.015Z,1020.70
2017-12-02T09:20:31.999Z,1020.73
2017-12-02T09:21:31.968Z,1020.75
2017-12-02T09:22:31.950Z,1020.73
2017-12-02T09:23:31.926Z,1020.73
2017-12-02T09:24:31.899Z,1020.75
2017-12-02T09:25:31.878Z,1020.78
2017-12-02T09:26:31.852Z,1020.75
2017-12-02T09:27:31.825Z,1020.80
2017-12-02T09:28:31.805Z,1020.81
2017-12-02T09:29:31.776Z,1020.87
2017-12-02T09:30:31.756Z,1020.86
2017-12-02T09:31:31.731Z,1020.86
2017-12-02T09:32:31.706Z,1020.87
2017-12-02T09:33:31.687Z,1020.90
2017-12-02T09:34:31.664Z,1020.89
2017-12-02T09:35:31.635Z,1020.87
2017-12-02T09:36:31.609Z,1020.89
2017-12-02T09:37:31.592Z,1020.89
2017-12-02T09:38:31.566Z,1020.90
2017-12-02T09:39:31.541Z,1020.92
2017-12-02T09:40:31.517Z,1020.95
2017-12-02T09:41:31.489Z,1020.97
2017-12-02T09:42:31.473Z,1021.03
2017-12-02T09:43:31.449Z,1021.00
2017-12-02T09:44:31.430Z,1021.03
2017-12-02T09:45:31.404Z,1021.08
2017-12-02T09:46:31.374Z,1021.09
2017-12-02T09:47:31.363Z,1021.09
2017-12-02T09:48:31.331Z,1021.09
2017-12-02T09:49:31.302Z,1021.12
2017-12-02T09:50:31.286Z,1021.15
2017-12-02T09:51:31.255Z,1021.13
2017-12-02T09:52:31.234Z,1021.15
2017-12-02T09:53:31.214Z,1021.15
2017-12-02T09:54:31.182Z,1021.18
2017-12-02T09:55:31.164Z,1021.17
2017-12-02T09:56:31.137Z,1021.20
2017-12-02T09:57:31.114Z,1021.17
2017-12-02T09:58:31.093Z,1021.14
2017-12-02T09:59:31.071Z,1021.11
2017-12-02T10:00:31.043Z,1021.13
2017-12-02T10:01:31.019Z,1021.10
2017-12-02T10:02:30.997Z,1021.11
2017-12-02T10:03:30.972Z,1021.15
2017-12-02T10:04:30.963Z,1021.14
2017-12-02T10:05:30.924Z,1021.21
2017-12-02T10:06:30.900Z,1021.19
2017-12-02T10:07:30.873Z,1021.18
2017-12-02T10:08:30.855Z,1021.16
2017-12-02T10:09:30.834Z,1021.17
2017-12-02T10:10:30.803Z,1021.19
2017-12-02T10:11:30.783Z,1021.16
2017-12-02T10:12:30.761Z,1021.15
2017-12-02T10:13:30.735Z,1021.07
2017-12-02T10:14:30.708Z,1021.08
2017-12-02T10:15:30.691Z,1021.07
2017-12-02T10:16:30.658Z,1021.04
2017-12-02T10:17:30.640Z,1021.03
2017-12-02T10:18:30.614Z,1021.04
2017-12-02T10:19:30.595Z,1021.05
2017-12-02T10:20:30.571Z,1021.03
2017-12-02T10:21:30.547Z,1021.03
2017-12-02T10:22:30.526Z,1021.02
2017-12-02T10:23:30.494Z,1021.03
2017-12-02T10:24:30.472Z,1021.00
2017-12-02T10:25:30.464Z,1021.08
2017-12-02T10:26:30.424Z,1021.07
2017-12-02T10:27:30.402Z,1021.08
2017-12-02T10:28:30.375Z,1021.06
2017-12-02T10:29:30.354Z,1021.04
2017-12-02T10:30:30.330Z,1021.09
2017-12-02T10:31:30.313Z,1021.05
2017-12-02T10:32:30.284Z,1021.08
2017-12-02T10:33:30.258Z,1021.09
2017-12-02T10:34:30.234Z,1021.10
2017-12-02T10:35:30.206Z,1021.11
2017-12-02T10:36:30.192Z,1021.10
2017-12-02T10:37:30.167Z,1021.12
2017-12-02T10:38:30.148Z,1021.10
2017-12-02T10:39:30.111Z,1021.03
2017-12-02T10:40:30.100Z,1021.02
2017-12-02T10:41:30.065Z,1020.99
2017-12-02T10:42:30.043Z,1020.99
2017-12-02T10:43:30.025Z,1021.00
2017-12-02T10:44:29.997Z,1020.96
2017-12-02T10:45:29.983Z,1020.97
2017-12-02T10:46:29.945Z,1020.98
2017-12-02T10:47:29.933Z,1020.96
2017-12-02T10:48:29.905Z,1021.01
2017-12-02T10:49:29.878Z,1021.00
2017-12-02T10:50:29.851Z,1020.95
2017-12-02T10:51:29.829Z,1020.91
2017-12-02T10:52:29.804Z,1020.91
2017-12-02T10:53:29.784Z,1020.92
2017-12-02T10:54:29.762Z,1020.91
2017-12-02T10:55:29.733Z,1020.89
2017-12-02T10:56:29.708Z,1020.92
2017-12-02T10:57:29.685Z,1020.91
2017-12-02T10:58:29.666Z,1020.91
2017-12-02T10:59:29.641Z,1020.87
2017-12-02T11:00:29.618Z,1020.85
2017-12-02T11:01:29.602Z,1020.88
2017-12-02T11:02:29.567Z,1020.88
2017-12-02T11:03:29.548Z,1020.87
2017-12-02T11:04:29.522Z,1020.87
2017-12-02T11:05:29.495Z,1020.85
2017-12-02T11:06:29.474Z,1020.88
2017-12-02T11:07:29.446Z,1020.84
2017-12-02T11:08:29.436Z,1020.84
2017-12-02T11:09:29.394Z,1020.84
2017-12-02T11:10:29.377Z,1020.82
2017-12-02T11:11:29.355Z,1020.80
2017-12-02T11:12:29.326Z,1020.80
2017-12-02T11:13:29.299Z,1020.78
2017-12-02T11:14:29.284Z,1020.77
2017-12-02T11:15:29.261Z,1020.75
2017-12-02T11:16:29.233Z,1020.73
2017-12-02T11:17:29.204Z,1020.74
2017-12-02T11:18:29.185Z,1020.76
2017-12-02T11:19:29.165Z,1020.75
2017-12-02T11:20:29.151Z,1020.78
2017-12-02T11:21:29.152Z,1020.77
2017-12-02T11:22:29.090Z,1020.78
2017-12-02T11:23:29.061Z,1020.78
2017-12-02T11:24:29.040Z,1020.76
2017-12-02T11:25:29.014Z,1020.77
2017-12-02T11:26:29.003Z,1020.76
2017-12-02T11:27:28.979Z,1020.74
2017-12-02T11:28:28.945Z,1020.76
2017-12-02T11:29:28.924Z,1020.76
2017-12-02T11:30:28.895Z,1020.75
2017-12-02T11:31:28.871Z,1020.77
2017-12-02T11:32:28.860Z,1020.81
2017-12-02T11:33:28.835Z,1020.78
2017-12-02T11:34:28.806Z,1020.81
2017-12-02T11:35:28.778Z,1020.79
2017-12-02T11:36:28.758Z,1020.85
2017-12-02T11:37:28.732Z,1020.83
2017-12-02T11:38:28.711Z,1020.82
2017-12-02T11:39:28.681Z,1020.80
2017-12-02T11:40:28.668Z,1020.78
2017-12-02T11:41:28.641Z,1020.82
2017-12-02T11:42:28.639Z,1020.79
2017-12-02T11:43:28.590Z,1020.79
2017-12-02T11:44:28.577Z,1020.77
2017-12-02T11:45:28.545Z,1020.75
2017-12-02T11:46:28.522Z,1020.70
2017-12-02T11:47:28.494Z,1020.76
2017-12-02T11:48:28.469Z,1020.67
2017-12-02T11:49:28.445Z,1020.70
2017-12-02T11:50:28.425Z,1020.69
2017-12-02T11:51:28.395Z,1020.65
2017-12-02T11:52:28.378Z,1020.66
2017-12-02T11:53:28.357Z,1020.64
2017-12-02T11:54:28.333Z,1020.59
2017-12-02T11:55:28.307Z,1020.60
2017-12-02T11:56:28.285Z,1020.59
2017-12-02T11:57:28.256Z,1020.59
2017-12-02T11:58:28.242Z,1020.58
2017-12-02T11:59:28.215Z,1020.54
2017-12-02T12:00:28.185Z,1020.58
2017-12-02T12:01:28.165Z,1020.54
2017-12-02T12:02:28.141Z,1020.52
2017-12-02T12:03:28.115Z,1020.57
2017-12-02T12:04:28.094Z,1020.56
2017-12-02T12:05:28.076Z,1020.56